sensor_id;sensor_type;location;lat;lon;timestamp;pressure;altitude;pressure_sealevel;temperature;humidity
7109;BME280;29079;41.930;25.558;2022-11-20T00:02:28;99246.91;;;16.02;97.85
7109;BME280;29079;41.930;25.558;2022-11-20T00:04:57;99242.84;;;16.07;97.08
7109;BME280;29079;41.930;25.558;2022-11-20T00:07:27;99253.72;;;16.13;96.14
7109;BME280;29079;41.930;25.558;2022-11-20T00:09:58;99259.09;;;16.13;96.08
7109;BME280;29079;41.930;25.558;2022-11-20T00:12:28;99259.47;;;16.10;96.17
7109;BME280;29079;41.930;25.558;2022-11-20T00:14:58;99263.56;;;16.06;95.42
7109;BME280;29079;41.930;25.558;2022-11-20T00:17:28;99269.22;;;16.11;96.06
7109;BME280;29079;41.930;25.558;2022-11-20T00:19:59;99267.72;;;16.09;96.11
7109;BME280;29079;41.930;25.558;2022-11-20T00:22:28;99263.19;;;16.09;96.01
7109;BME280;29079;41.930;25.558;2022-11-20T00:24:59;99257.81;;;16.09;95.32
7109;BME280;29079;41.930;25.558;2022-11-20T00:27:29;99253.72;;;16.13;95.70
7109;BME280;29079;41.930;25.558;2022-11-20T00:29:58;99253.72;;;16.13;95.07
7109;BME280;29079;41.930;25.558;2022-11-20T00:32:28;99253.28;;;16.01;95.31
7109;BME280;29079;41.930;25.558;2022-11-20T00:34:58;99261.09;;;16.19;95.20
7109;BME280;29079;41.930;25.558;2022-11-20T00:37:28;99254.34;;;16.24;94.42
7109;BME280;29079;41.930;25.558;2022-11-20T00:39:57;99251.16;;;16.20;94.25
7109;BME280;29079;41.930;25.558;2022-11-20T00:42:28;99241.28;;;16.35;93.42
7109;BME280;29079;41.930;25.558;2022-11-20T00:44:59;99247.72;;;16.26;93.53
7109;BME280;29079;41.930;25.558;2022-11-20T00:47:28;99235.41;;;16.32;92.34
7109;BME280;29079;41.930;25.558;2022-11-20T00:49:58;99242.13;;;16.36;92.15
7109;BME280;29079;41.930;25.558;2022-11-20T00:52:28;99240.34;;;16.28;91.87
7109;BME280;29079;41.930;25.558;2022-11-20T00:54:57;99234.09;;;16.28;91.81
7109;BME280;29079;41.930;25.558;2022-11-20T00:57:28;99234.03;;;16.36;91.18
7109;BME280;29079;41.930;25.558;2022-11-20T00:59:58;99236.00;;;16.42;90.82
7109;BME280;29079;41.930;25.558;2022-11-20T01:02:27;99239.38;;;16.44;90.92
7109;BME280;29079;41.930;25.558;2022-11-20T01:04:57;99238.03;;;16.40;90.72
7109;BME280;29079;41.930;25.558;2022-11-20T01:07:26;99240.91;;;16.39;90.86
7109;BME280;29079;41.930;25.558;2022-11-20T01:09:56;99232.66;;;16.40;91.08
7109;BME280;29079;41.930;25.558;2022-11-20T01:12:29;99232.03;;;16.53;90.61
7109;BME280;29079;41.930;25.558;2022-11-20T01:14:59;99248.38;;;16.51;90.05
7109;BME280;29079;41.930;25.558;2022-11-20T01:17:30;99247.66;;;16.58;89.90
7109;BME280;29079;41.930;25.558;2022-11-20T01:20:00;99246.72;;;16.50;90.38
7109;BME280;29079;41.930;25.558;2022-11-20T01:22:29;99249.47;;;16.42;90.90
7109;BME280;29079;41.930;25.558;2022-11-20T01:24:59;99243.44;;;16.40;90.93
7109;BME280;29079;41.930;25.558;2022-11-20T01:27:30;99244.25;;;16.41;90.74
7109;BME280;29079;41.930;25.558;2022-11-20T01:29:59;99236.72;;;16.36;90.92
7109;BME280;29079;41.930;25.558;2022-11-20T01:32:29;99245.16;;;16.33;90.81
7109;BME280;29079;41.930;25.558;2022-11-20T01:34:59;99235.94;;;16.50;90.19
7109;BME280;29079;41.930;25.558;2022-11-20T01:37:28;99237.22;;;16.40;90.36
7109;BME280;29079;41.930;25.558;2022-11-20T01:39:58;99229.66;;;16.35;90.53
7109;BME280;29079;41.930;25.558;2022-11-20T01:42:27;99238.28;;;16.30;90.70
7109;BME280;29079;41.930;25.558;2022-11-20T01:48:04;99246.75;;;16.42;90.01
7109;BME280;29079;41.930;25.558;2022-11-20T01:50:33;99241.75;;;16.39;89.93
7109;BME280;29079;41.930;25.558;2022-11-20T01:53:03;99249.91;;;16.31;90.52
7109;BME280;29079;41.930;25.558;2022-11-20T01:55:34;99247.22;;;16.31;90.63
7109;BME280;29079;41.930;25.558;2022-11-20T01:58:05;99261.50;;;16.31;90.70
7109;BME280;29079;41.930;25.558;2022-11-20T02:00:35;99246.31;;;16.39;90.07
7109;BME280;29079;41.930;25.558;2022-11-20T02:03:07;99241.84;;;16.31;90.14
7109;BME280;29079;41.930;25.558;2022-11-20T02:05:38;99240.34;;;16.28;90.25
7109;BME280;29079;41.930;25.558;2022-11-20T02:08:11;99240.78;;;16.32;90.31
7109;BME280;29079;41.930;25.558;2022-11-20T02:10:41;99247.09;;;16.24;90.18
7109;BME280;29079;41.930;25.558;2022-11-20T02:13:12;99244.84;;;16.28;90.34
7109;BME280;29079;41.930;25.558;2022-11-20T02:16:00;99238.78;;;16.34;89.74
7109;BME280;29079;41.930;25.558;2022-11-20T02:18:31;99243.13;;;16.35;89.92
7109;BME280;29079;41.930;25.558;2022-11-20T02:21:03;99236.28;;;16.32;89.71
7109;BME280;29079;41.930;25.558;2022-11-20T02:23:36;99241.75;;;16.39;89.10
7109;BME280;29079;41.930;25.558;2022-11-20T02:26:09;99239.28;;;16.29;89.61
7109;BME280;29079;41.930;25.558;2022-11-20T02:28:40;99234.59;;;16.31;89.39
7109;BME280;29079;41.930;25.558;2022-11-20T02:31:10;99235.78;;;16.29;89.27
7109;BME280;29079;41.930;25.558;2022-11-20T02:33:40;99227.41;;;16.24;89.68
7109;BME280;29079;41.930;25.558;2022-11-20T02:36:10;99230.13;;;16.24;89.65
7109;BME280;29079;41.930;25.558;2022-11-20T02:38:41;99228.88;;;16.26;89.72
7109;BME280;29079;41.930;25.558;2022-11-20T02:41:13;99220.94;;;16.33;89.43
7109;BME280;29079;41.930;25.558;2022-11-20T02:43:43;99224.59;;;16.40;88.32
7109;BME280;29079;41.930;25.558;2022-11-20T02:46:12;99223.19;;;16.44;88.71
7109;BME280;29079;41.930;25.558;2022-11-20T02:48:42;99216.69;;;16.39;89.08
7109;BME280;29079;41.930;25.558;2022-11-20T02:51:11;99216.75;;;16.30;89.42
7109;BME280;29079;41.930;25.558;2022-11-20T02:53:41;99214.28;;;16.21;89.79
7109;BME280;29079;41.930;25.558;2022-11-20T02:56:11;99220.19;;;16.39;89.06
7109;BME280;29079;41.930;25.558;2022-11-20T02:58:42;99205.91;;;16.39;88.99
7109;BME280;29079;41.930;25.558;2022-11-20T03:01:11;99199.97;;;16.43;89.03
7109;BME280;29079;41.930;25.558;2022-11-20T03:03:41;99205.78;;;16.32;89.01
7109;BME280;29079;41.930;25.558;2022-11-20T03:06:10;99199.94;;;16.28;89.40
7109;BME280;29079;41.930;25.558;2022-11-20T03:08:40;99199.28;;;16.26;89.57
7109;BME280;29079;41.930;25.558;2022-11-20T03:11:09;99202.06;;;16.18;89.91
7109;BME280;29079;41.930;25.558;2022-11-20T03:13:39;99204.59;;;16.34;89.08
7109;BME280;29079;41.930;25.558;2022-11-20T03:16:12;99202.03;;;16.56;88.04
7109;BME280;29079;41.930;25.558;2022-11-20T03:18:42;99211.13;;;16.40;88.79
7109;BME280;29079;41.930;25.558;2022-11-20T03:21:12;99209.81;;;16.36;89.00
7109;BME280;29079;41.930;25.558;2022-11-20T03:23:42;99193.69;;;16.28;89.29
7109;BME280;29079;41.930;25.558;2022-11-20T03:26:12;99187.25;;;16.37;89.32
7109;BME280;29079;41.930;25.558;2022-11-20T03:28:42;99192.72;;;16.44;88.84
7109;BME280;29079;41.930;25.558;2022-11-20T03:31:16;99193.19;;;16.32;89.33
7109;BME280;29079;41.930;25.558;2022-11-20T03:33:46;99191.19;;;16.26;89.58
7109;BME280;29079;41.930;25.558;2022-11-20T03:36:17;99190.19;;;16.27;89.81
7109;BME280;29079;41.930;25.558;2022-11-20T03:38:47;99181.66;;;16.24;89.94
7109;BME280;29079;41.930;25.558;2022-11-20T03:41:17;99193.44;;;16.23;89.76
7109;BME280;29079;41.930;25.558;2022-11-20T03:43:48;99197.31;;;16.20;90.29
7109;BME280;29079;41.930;25.558;2022-11-20T03:46:19;99200.72;;;16.14;90.46
7109;BME280;29079;41.930;25.558;2022-11-20T03:48:49;99201.78;;;16.28;90.33
7109;BME280;29079;41.930;25.558;2022-11-20T03:51:20;99192.06;;;16.27;90.19
7109;BME280;29079;41.930;25.558;2022-11-20T03:53:51;99194.06;;;16.25;90.94
7109;BME280;29079;41.930;25.558;2022-11-20T03:56:22;99190.72;;;16.23;90.68
7109;BME280;29079;41.930;25.558;2022-11-20T03:58:52;99189.63;;;16.32;90.45
7109;BME280;29079;41.930;25.558;2022-11-20T04:01:23;99184.91;;;16.34;89.69
7109;BME280;29079;41.930;25.558;2022-11-20T04:03:53;99179.91;;;16.31;90.36
7109;BME280;29079;41.930;25.558;2022-11-20T04:06:24;99159.56;;;16.28;90.50
7109;BME280;29079;41.930;25.558;2022-11-20T04:08:54;99168.47;;;16.29;90.71
7109;BME280;29079;41.930;25.558;2022-11-20T04:11:25;99160.31;;;16.37;90.45
7109;BME280;29079;41.930;25.558;2022-11-20T04:13:56;99157.53;;;16.45;89.80
7109;BME280;29079;41.930;25.558;2022-11-20T04:16:28;99150.19;;;16.39;90.24
7109;BME280;29079;41.930;25.558;2022-11-20T04:18:59;99137.66;;;16.46;89.48
7109;BME280;29079;41.930;25.558;2022-11-20T04:21:29;99138.47;;;16.32;89.63
7109;BME280;29079;41.930;25.558;2022-11-20T04:23:58;99150.63;;;16.28;90.42
7109;BME280;29079;41.930;25.558;2022-11-20T04:26:28;99155.56;;;16.39;89.62
7109;BME280;29079;41.930;25.558;2022-11-20T04:28:59;99169.19;;;16.23;90.26
7109;BME280;29079;41.930;25.558;2022-11-20T04:31:32;99150.28;;;16.31;90.42
7109;BME280;29079;41.930;25.558;2022-11-20T04:34:02;99160.94;;;16.24;90.76
7109;BME280;29079;41.930;25.558;2022-11-20T04:36:32;99171.53;;;16.26;90.24
7109;BME280;29079;41.930;25.558;2022-11-20T04:39:03;99179.03;;;16.30;90.47
7109;BME280;29079;41.930;25.558;2022-11-20T04:41:33;99169.00;;;16.24;91.00
7109;BME280;29079;41.930;25.558;2022-11-20T04:44:04;99160.50;;;16.35;90.31
7109;BME280;29079;41.930;25.558;2022-11-20T04:46:36;99157.81;;;16.35;90.46
7109;BME280;29079;41.930;25.558;2022-11-20T04:49:07;99161.31;;;16.36;90.58
7109;BME280;29079;41.930;25.558;2022-11-20T04:51:36;99181.75;;;16.30;90.44
7109;BME280;29079;41.930;25.558;2022-11-20T04:54:06;99165.16;;;16.42;90.08
7109;BME280;29079;41.930;25.558;2022-11-20T04:56:36;99165.88;;;16.35;90.26
7109;BME280;29079;41.930;25.558;2022-11-20T04:59:06;99168.03;;;16.40;90.32
7109;BME280;29079;41.930;25.558;2022-11-20T05:01:37;99182.88;;;16.36;90.54
7109;BME280;29079;41.930;25.558;2022-11-20T05:04:06;99188.63;;;16.33;90.39
7109;BME280;29079;41.930;25.558;2022-11-20T05:06:36;99168.66;;;16.27;90.85
7109;BME280;29079;41.930;25.558;2022-11-20T05:09:06;99166.13;;;16.26;90.51
7109;BME280;29079;41.930;25.558;2022-11-20T05:11:35;99175.97;;;16.18;90.51
7109;BME280;29079;41.930;25.558;2022-11-20T05:14:06;99173.91;;;16.21;90.20
7109;BME280;29079;41.930;25.558;2022-11-20T05:16:37;99173.75;;;16.22;90.77
7109;BME280;29079;41.930;25.558;2022-11-20T05:19:07;99182.84;;;16.21;90.72
7109;BME280;29079;41.930;25.558;2022-11-20T05:21:37;99190.00;;;16.29;90.58
7109;BME280;29079;41.930;25.558;2022-11-20T05:24:06;99201.50;;;16.23;90.60
7109;BME280;29079;41.930;25.558;2022-11-20T05:26:36;99189.59;;;16.17;90.94
7109;BME280;29079;41.930;25.558;2022-11-20T05:29:06;99188.69;;;16.25;90.61
7109;BME280;29079;41.930;25.558;2022-11-20T05:31:35;99188.03;;;16.23;90.70
7109;BME280;29079;41.930;25.558;2022-11-20T05:34:06;99190.91;;;16.21;90.48
7109;BME280;29079;41.930;25.558;2022-11-20T05:36:36;99192.06;;;16.27;90.58
7109;BME280;29079;41.930;25.558;2022-11-20T05:39:06;99187.50;;;16.27;90.34
7109;BME280;29079;41.930;25.558;2022-11-20T05:41:35;99172.72;;;16.23;90.41
7109;BME280;29079;41.930;25.558;2022-11-20T05:44:05;99175.22;;;16.25;90.39
7109;BME280;29079;41.930;25.558;2022-11-20T05:46:34;99177.63;;;16.19;90.56
7109;BME280;29079;41.930;25.558;2022-11-20T05:49:04;99185.72;;;16.19;90.76
7109;BME280;29079;41.930;25.558;2022-11-20T05:51:35;99179.00;;;16.15;90.38
7109;BME280;29079;41.930;25.558;2022-11-20T05:54:04;99194.34;;;16.15;90.81
7109;BME280;29079;41.930;25.558;2022-11-20T05:56:34;99187.91;;;16.16;90.86
7109;BME280;29079;41.930;25.558;2022-11-20T05:59:04;99184.03;;;16.18;90.65
7109;BME280;29079;41.930;25.558;2022-11-20T06:01:33;99193.06;;;16.26;90.43
7109;BME280;29079;41.930;25.558;2022-11-20T06:04:04;99195.28;;;16.22;90.78
7109;BME280;29079;41.930;25.558;2022-11-20T06:06:35;99186.72;;;16.18;90.34
7109;BME280;29079;41.930;25.558;2022-11-20T06:09:04;99190.19;;;16.27;90.04
7109;BME280;29079;41.930;25.558;2022-11-20T06:11:34;99188.03;;;16.23;89.85
7109;BME280;29079;41.930;25.558;2022-11-20T06:14:04;99183.44;;;16.31;89.03
7109;BME280;29079;41.930;25.558;2022-11-20T06:16:34;99191.59;;;16.38;88.62
7109;BME280;29079;41.930;25.558;2022-11-20T06:19:03;99194.47;;;16.36;88.36
7109;BME280;29079;41.930;25.558;2022-11-20T06:21:34;99210.81;;;16.35;89.00
7109;BME280;29079;41.930;25.558;2022-11-20T06:24:04;99200.91;;;16.35;89.04
7109;BME280;29079;41.930;25.558;2022-11-20T06:26:34;99195.22;;;16.45;88.05
7109;BME280;29079;41.930;25.558;2022-11-20T06:29:04;99205.72;;;16.40;88.53
7109;BME280;29079;41.930;25.558;2022-11-20T06:31:33;99209.75;;;16.44;88.66
7109;BME280;29079;41.930;25.558;2022-11-20T06:34:06;99208.59;;;16.39;88.46
7109;BME280;29079;41.930;25.558;2022-11-20T06:36:37;99209.56;;;16.46;87.81
7109;BME280;29079;41.930;25.558;2022-11-20T06:39:07;99212.44;;;16.44;88.47
7109;BME280;29079;41.930;25.558;2022-11-20T06:41:36;99214.84;;;16.54;87.99
7109;BME280;29079;41.930;25.558;2022-11-20T06:44:06;99219.72;;;16.59;87.20
7109;BME280;29079;41.930;25.558;2022-11-20T06:46:36;99221.03;;;16.63;87.59
7109;BME280;29079;41.930;25.558;2022-11-20T06:49:05;99231.69;;;16.56;87.67
7109;BME280;29079;41.930;25.558;2022-11-20T06:51:35;99231.78;;;16.63;87.63
7109;BME280;29079;41.930;25.558;2022-11-20T06:54:06;99228.91;;;16.64;87.34
7109;BME280;29079;41.930;25.558;2022-11-20T06:56:36;99238.47;;;16.67;86.99
7109;BME280;29079;41.930;25.558;2022-11-20T06:59:05;99248.28;;;16.60;87.46
7109;BME280;29079;41.930;25.558;2022-11-20T07:01:35;99240.88;;;16.62;87.57
7109;BME280;29079;41.930;25.558;2022-11-20T07:04:05;99247.97;;;16.63;87.34
7109;BME280;29079;41.930;25.558;2022-11-20T07:06:34;99239.97;;;16.69;86.85
7109;BME280;29079;41.930;25.558;2022-11-20T07:09:05;99242.19;;;16.66;86.86
7109;BME280;29079;41.930;25.558;2022-11-20T07:11:40;99252.63;;;16.69;86.19
7109;BME280;29079;41.930;25.558;2022-11-20T07:14:10;99250.66;;;16.63;86.81
7109;BME280;29079;41.930;25.558;2022-11-20T07:16:40;99251.28;;;16.65;87.12
7109;BME280;29079;41.930;25.558;2022-11-20T07:19:10;99256.03;;;16.63;87.12
7109;BME280;29079;41.930;25.558;2022-11-20T07:21:39;99254.53;;;16.60;86.88
7109;BME280;29079;41.930;25.558;2022-11-20T07:24:10;99251.00;;;16.60;87.01
7109;BME280;29079;41.930;25.558;2022-11-20T07:26:40;99241.53;;;16.64;87.07
7109;BME280;29079;41.930;25.558;2022-11-20T07:29:10;99247.97;;;16.63;86.77
7109;BME280;29079;41.930;25.558;2022-11-20T07:31:39;99249.34;;;16.59;86.74
7109;BME280;29079;41.930;25.558;2022-11-20T07:34:09;99250.91;;;16.53;86.98
7109;BME280;29079;41.930;25.558;2022-11-20T07:36:38;99254.53;;;16.60;86.80
7109;BME280;29079;41.930;25.558;2022-11-20T07:39:08;99253.69;;;16.60;86.78
7109;BME280;29079;41.930;25.558;2022-11-20T07:41:39;99250.47;;;16.64;86.58
7109;BME280;29079;41.930;25.558;2022-11-20T07:44:09;99248.97;;;16.62;86.44
7109;BME280;29079;41.930;25.558;2022-11-20T07:46:39;99261.69;;;16.68;86.14
7109;BME280;29079;41.930;25.558;2022-11-20T07:49:08;99255.03;;;16.79;85.72
7109;BME280;29079;41.930;25.558;2022-11-20T07:51:39;99245.28;;;16.78;85.54
7109;BME280;29079;41.930;25.558;2022-11-20T07:54:09;99233.66;;;16.77;85.79
7109;BME280;29079;41.930;25.558;2022-11-20T07:56:40;99240.53;;;16.80;85.67
7109;BME280;29079;41.930;25.558;2022-11-20T07:59:09;99237.66;;;16.81;85.64
7109;BME280;29079;41.930;25.558;2022-11-20T08:01:40;99247.38;;;16.91;85.13
7109;BME280;29079;41.930;25.558;2022-11-20T08:04:10;99246.63;;;16.97;84.85
7109;BME280;29079;41.930;25.558;2022-11-20T08:06:39;99228.16;;;16.94;85.00
7109;BME280;29079;41.930;25.558;2022-11-20T08:09:09;99239.56;;;16.96;85.13
7109;BME280;29079;41.930;25.558;2022-11-20T08:11:41;99240.56;;;16.95;84.95
7109;BME280;29079;41.930;25.558;2022-11-20T08:14:28;99247.66;;;16.96;84.87
7109;BME280;29079;41.930;25.558;2022-11-20T08:16:59;99249.78;;;17.00;84.23
7109;BME280;29079;41.930;25.558;2022-11-20T08:19:28;99257.34;;;17.05;83.56
7109;BME280;29079;41.930;25.558;2022-11-20T08:21:58;99256.03;;;17.01;83.74
7109;BME280;29079;41.930;25.558;2022-11-20T08:24:27;99261.81;;;16.98;83.61
7109;BME280;29079;41.930;25.558;2022-11-20T08:26:59;99245.06;;;17.17;82.39
7109;BME280;29079;41.930;25.558;2022-11-20T08:29:29;99242.94;;;17.13;82.54
7109;BME280;29079;41.930;25.558;2022-11-20T08:31:59;99242.94;;;17.13;82.67
7109;BME280;29079;41.930;25.558;2022-11-20T08:34:28;99241.06;;;17.13;82.67
7109;BME280;29079;41.930;25.558;2022-11-20T08:36:58;99227.75;;;17.12;82.54
7109;BME280;29079;41.930;25.558;2022-11-20T08:39:28;99220.34;;;17.14;82.31
7109;BME280;29079;41.930;25.558;2022-11-20T08:41:58;99197.28;;;17.11;82.18
7109;BME280;29079;41.930;25.558;2022-11-20T08:44:29;99198.78;;;17.14;82.27
7109;BME280;29079;41.930;25.558;2022-11-20T08:46:58;99194.22;;;17.14;82.20
7109;BME280;29079;41.930;25.558;2022-11-20T08:49:29;99190.75;;;17.20;81.72
7109;BME280;29079;41.930;25.558;2022-11-20T08:51:59;99175.88;;;17.25;81.67
7109;BME280;29079;41.930;25.558;2022-11-20T08:54:29;99181.19;;;17.18;81.84
7109;BME280;29079;41.930;25.558;2022-11-20T08:56:58;99179.16;;;17.20;82.07
7109;BME280;29079;41.930;25.558;2022-11-20T08:59:29;99180.91;;;17.28;81.72
7109;BME280;29079;41.930;25.558;2022-11-20T09:02:19;99173.00;;;17.26;81.77
7109;BME280;29079;41.930;25.558;2022-11-20T09:04:49;99170.97;;;17.28;81.40
7109;BME280;29079;41.930;25.558;2022-11-20T09:07:19;99176.69;;;17.40;80.69
7109;BME280;29079;41.930;25.558;2022-11-20T09:09:49;99181.03;;;17.41;80.50
7109;BME280;29079;41.930;25.558;2022-11-20T09:12:39;99182.47;;;17.37;80.82
7109;BME280;29079;41.930;25.558;2022-11-20T09:15:11;99183.13;;;17.39;80.67
7109;BME280;29079;41.930;25.558;2022-11-20T09:17:40;99188.03;;;17.35;80.58
7109;BME280;29079;41.930;25.558;2022-11-20T09:20:10;99183.19;;;17.46;80.02
7109;BME280;29079;41.930;25.558;2022-11-20T09:22:40;99183.50;;;17.36;80.62
7109;BME280;29079;41.930;25.558;2022-11-20T09:25:09;99190.25;;;17.47;79.95
7109;BME280;29079;41.930;25.558;2022-11-20T09:27:39;99182.91;;;17.40;80.09
7109;BME280;29079;41.930;25.558;2022-11-20T09:30:13;99182.44;;;17.52;79.82
7109;BME280;29079;41.930;25.558;2022-11-20T09:32:43;99131.34;;;17.29;78.86
7109;BME280;29079;41.930;25.558;2022-11-20T09:35:12;99183.06;;;17.69;78.47
7109;BME280;29079;41.930;25.558;2022-11-20T09:37:42;99175.78;;;17.69;78.65
7109;BME280;29079;41.930;25.558;2022-11-20T09:40:17;99172.28;;;17.90;77.90
7109;BME280;29079;41.930;25.558;2022-11-20T09:42:50;99165.13;;;17.83;78.48
7109;BME280;29079;41.930;25.558;2022-11-20T09:45:24;99170.59;;;17.89;78.26
7109;BME280;29079;41.930;25.558;2022-11-20T09:48:03;99156.63;;;18.01;77.44
7109;BME280;29079;41.930;25.558;2022-11-20T09:50:38;99160.53;;;17.98;77.34
7109;BME280;29079;41.930;25.558;2022-11-20T09:53:13;99155.56;;;18.02;77.41
7109;BME280;29079;41.930;25.558;2022-11-20T09:55:44;99165.53;;;18.23;76.89
7109;BME280;29079;41.930;25.558;2022-11-20T09:58:18;99163.66;;;18.23;76.75
7109;BME280;29079;41.930;25.558;2022-11-20T10:00:51;99162.53;;;18.39;75.59
7109;BME280;29079;41.930;25.558;2022-11-20T10:03:26;99162.78;;;18.44;75.71
7109;BME280;29079;41.930;25.558;2022-11-20T10:06:04;99164.63;;;18.44;75.29
7109;BME280;29079;41.930;25.558;2022-11-20T10:08:36;99168.81;;;18.47;75.23
7109;BME280;29079;41.930;25.558;2022-11-20T10:11:12;99163.41;;;18.47;75.14
7109;BME280;29079;41.930;25.558;2022-11-20T10:13:47;99164.94;;;18.56;74.47
7109;BME280;29079;41.930;25.558;2022-11-20T10:16:24;99156.47;;;18.66;74.16
7109;BME280;29079;41.930;25.558;2022-11-20T10:18:59;99158.03;;;18.82;73.60
7109;BME280;29079;41.930;25.558;2022-11-20T10:21:35;99173.63;;;18.79;73.91
7109;BME280;29079;41.930;25.558;2022-11-20T10:26:55;99166.78;;;18.84;74.02
7109;BME280;29079;41.930;25.558;2022-11-20T10:29:27;99158.88;;;19.17;72.32
7109;BME280;29079;41.930;25.558;2022-11-20T10:32:02;99160.53;;;19.18;71.88
7109;BME280;29079;41.930;25.558;2022-11-20T10:34:38;99168.28;;;19.28;71.58
7109;BME280;29079;41.930;25.558;2022-11-20T10:37:14;99149.56;;;19.26;71.66
7109;BME280;29079;41.930;25.558;2022-11-20T10:39:47;99146.47;;;19.36;70.95
7109;BME280;29079;41.930;25.558;2022-11-20T10:42:22;99141.47;;;19.40;70.89
7109;BME280;29079;41.930;25.558;2022-11-20T10:44:57;99154.84;;;19.48;70.62
7109;BME280;29079;41.930;25.558;2022-11-20T10:47:35;99147.34;;;19.50;69.93
7109;BME280;29079;41.930;25.558;2022-11-20T10:50:05;99144.19;;;19.40;70.81
7109;BME280;29079;41.930;25.558;2022-11-20T10:52:41;99150.25;;;19.48;70.40
7109;BME280;29079;41.930;25.558;2022-11-20T10:55:18;99142.78;;;19.51;69.78
7109;BME280;29079;41.930;25.558;2022-11-20T10:57:56;99143.19;;;19.54;69.74
7109;BME280;29079;41.930;25.558;2022-11-20T11:00:30;99126.94;;;19.47;69.97
7109;BME280;29079;41.930;25.558;2022-11-20T11:03:02;99120.69;;;19.47;70.29
7109;BME280;29079;41.930;25.558;2022-11-20T11:05:33;99126.94;;;19.54;69.77
7109;BME280;29079;41.930;25.558;2022-11-20T11:08:05;99107.63;;;19.64;69.03
7109;BME280;29079;41.930;25.558;2022-11-20T11:10:39;99103.84;;;19.58;69.61
7109;BME280;29079;41.930;25.558;2022-11-20T11:13:21;99092.41;;;19.56;69.85
7109;BME280;29079;41.930;25.558;2022-11-20T11:15:51;99085.72;;;19.39;70.24
7109;BME280;29079;41.930;25.558;2022-11-20T11:18:26;99071.78;;;19.55;69.71
7109;BME280;29079;41.930;25.558;2022-11-20T11:20:56;99063.44;;;19.43;70.05
7109;BME280;29079;41.930;25.558;2022-11-20T11:23:29;99074.69;;;19.40;69.84
7109;BME280;29079;41.930;25.558;2022-11-20T11:26:00;99063.25;;;19.58;69.10
7109;BME280;29079;41.930;25.558;2022-11-20T11:28:30;99055.94;;;19.45;69.32
7109;BME280;29079;41.930;25.558;2022-11-20T11:31:00;99057.66;;;19.66;68.83
7109;BME280;29079;41.930;25.558;2022-11-20T11:33:31;99057.44;;;19.68;68.43
7109;BME280;29079;41.930;25.558;2022-11-20T11:36:05;99048.06;;;19.77;68.01
7109;BME280;29079;41.930;25.558;2022-11-20T11:38:45;99043.28;;;19.66;68.35
7109;BME280;29079;41.930;25.558;2022-11-20T11:41:16;99043.47;;;19.64;68.24
7109;BME280;29079;41.930;25.558;2022-11-20T11:43:51;99044.53;;;19.63;68.64
7109;BME280;29079;41.930;25.558;2022-11-20T11:46:38;99039.31;;;19.55;69.04
7109;BME280;29079;41.930;25.558;2022-11-20T11:49:16;99048.28;;;19.76;67.80
7109;BME280;29079;41.930;25.558;2022-11-20T11:51:50;99052.03;;;19.68;67.79
7109;BME280;29079;41.930;25.558;2022-11-20T11:54:24;99059.50;;;19.66;67.29
7109;BME280;29079;41.930;25.558;2022-11-20T11:56:56;99051.19;;;19.54;67.65
7109;BME280;29079;41.930;25.558;2022-11-20T11:59:28;99039.94;;;19.51;68.23
7109;BME280;29079;41.930;25.558;2022-11-20T12:02:03;99028.28;;;19.43;68.40
7109;BME280;29079;41.930;25.558;2022-11-20T12:04:44;99052.03;;;19.68;67.55
7109;BME280;29079;41.930;25.558;2022-11-20T12:07:15;99052.00;;;19.61;67.71
7109;BME280;29079;41.930;25.558;2022-11-20T12:10:12;99061.81;;;19.62;67.39
7109;BME280;29079;41.930;25.558;2022-11-20T12:12:44;99060.78;;;19.63;66.69
7109;BME280;29079;41.930;25.558;2022-11-20T12:15:20;99055.38;;;19.63;67.10
7109;BME280;29079;41.930;25.558;2022-11-20T12:17:52;99046.59;;;19.61;66.53
7109;BME280;29079;41.930;25.558;2022-11-20T12:20:24;99040.16;;;19.56;67.46
7109;BME280;29079;41.930;25.558;2022-11-20T12:22:56;99046.81;;;19.60;66.96
7109;BME280;29079;41.930;25.558;2022-11-20T12:25:30;99059.94;;;19.70;66.01
7109;BME280;29079;41.930;25.558;2022-11-20T12:28:16;99050.34;;;19.60;66.88
7109;BME280;29079;41.930;25.558;2022-11-20T12:30:51;99054.09;;;19.59;66.49
7109;BME280;29079;41.930;25.558;2022-11-20T12:33:26;99049.13;;;19.56;66.80
7109;BME280;29079;41.930;25.558;2022-11-20T12:36:05;99042.00;;;19.48;67.18
7109;BME280;29079;41.930;25.558;2022-11-20T12:38:43;99040.75;;;19.44;67.35
7109;BME280;29079;41.930;25.558;2022-11-20T12:41:19;99031.59;;;19.39;67.76
7109;BME280;29079;41.930;25.558;2022-11-20T12:44:10;99025.97;;;19.60;66.43
7109;BME280;29079;41.930;25.558;2022-11-20T12:47:06;99011.63;;;19.46;66.91
7109;BME280;29079;41.930;25.558;2022-11-20T12:49:41;99027.44;;;19.36;67.58
7109;BME280;29079;41.930;25.558;2022-11-20T12:52:21;99016.63;;;19.49;66.64
7109;BME280;29079;41.930;25.558;2022-11-20T12:54:58;99028.69;;;19.40;67.07
7109;BME280;29079;41.930;25.558;2022-11-20T12:57:34;99029.72;;;19.46;66.59
7109;BME280;29079;41.930;25.558;2022-11-20T13:00:11;99025.78;;;19.42;66.81
7109;BME280;29079;41.930;25.558;2022-11-20T13:02:47;99030.97;;;19.37;66.97
7109;BME280;29079;41.930;25.558;2022-11-20T13:05:24;99039.25;;;19.22;67.93
7109;BME280;29079;41.930;25.558;2022-11-20T13:07:58;99027.81;;;19.20;68.29
7109;BME280;29079;41.930;25.558;2022-11-20T13:10:31;99023.69;;;19.30;67.70
7109;BME280;29079;41.930;25.558;2022-11-20T13:13:03;99019.09;;;19.24;67.83
7109;BME280;29079;41.930;25.558;2022-11-20T13:15:44;99019.94;;;19.31;67.35
7109;BME280;29079;41.930;25.558;2022-11-20T13:18:25;99018.88;;;19.33;67.47
7109;BME280;29079;41.930;25.558;2022-11-20T13:20:54;99014.53;;;19.45;66.79
7109;BME280;29079;41.930;25.558;2022-11-20T13:23:26;99009.31;;;19.50;66.40
7109;BME280;29079;41.930;25.558;2022-11-20T13:26:03;99008.06;;;19.33;67.29
7109;BME280;29079;41.930;25.558;2022-11-20T13:28:33;99012.63;;;19.25;67.44
7109;BME280;29079;41.930;25.558;2022-11-20T13:31:03;99011.59;;;19.40;66.51